createdAt,value
2019-03-24T00:02:28.705Z,17.10
2019-03-24T00:04:59.720Z,16.27
2019-03-24T00:07:30.834Z,15.98
2019-03-24T00:10:02.844Z,18.92
2019-03-24T00:12:33.955Z,22.58
2019-03-24T00:15:09.378Z,16.37
2019-03-24T00:17:40.997Z,16.42
2019-03-24T00:20:13.718Z,27.13
2019-03-24T00:22:44.838Z,18.07
2019-03-24T00:25:15.949Z,16.32
2019-03-24T00:27:47.091Z,18.70
2019-03-24T00:30:18.235Z,17.05
2019-03-24T00:32:49.319Z,18.67
2019-03-24T00:35:20.452Z,17.35
2019-03-24T00:37:51.623Z,19.07
2019-03-24T00:40:22.834Z,17.90
2019-03-24T00:42:54.398Z,18.40
2019-03-24T00:45:36.215Z,17.32
2019-03-24T00:47:58.411Z,19.57
2019-03-24T00:50:29.535Z,18.62
2019-03-24T00:53:00.699Z,18.73
2019-03-24T00:55:31.744Z,17.35
2019-03-24T00:58:02.803Z,15.85
2019-03-24T01:00:45.317Z,16.65
2019-03-24T01:03:16.602Z,16.67
2019-03-24T01:05:47.835Z,18.07
2019-03-24T01:08:19.159Z,18.48
2019-03-24T01:10:50.278Z,17.42
2019-03-24T01:13:23.242Z,18.32
2019-03-24T01:15:54.307Z,17.07
2019-03-24T01:18:25.455Z,16.12
2019-03-24T01:20:56.602Z,16.07
2019-03-24T01:23:27.666Z,17.57
2019-03-24T01:25:58.759Z,15.75
2019-03-24T01:28:30.026Z,19.02
2019-03-24T01:31:01.078Z,17.07
2019-03-24T01:33:32.254Z,17.10
2019-03-24T01:36:03.463Z,15.28
2019-03-24T01:38:34.545Z,16.62
2019-03-24T01:41:08.001Z,17.27
2019-03-24T01:43:39.745Z,15.45
2019-03-24T01:46:10.803Z,15.60
2019-03-24T01:48:42.197Z,15.72
2019-03-24T01:51:13.360Z,16.82
2019-03-24T01:53:45.529Z,17.48
2019-03-24T01:56:16.706Z,18.48
2019-03-24T01:58:47.879Z,17.70
2019-03-24T02:01:19.107Z,18.27
2019-03-24T02:03:50.444Z,16.40
2019-03-24T02:06:21.463Z,15.38
2019-03-24T02:08:52.624Z,17.02
2019-03-24T02:11:23.837Z,17.37
2019-03-24T02:13:54.876Z,16.05
2019-03-24T02:16:26.029Z,14.43
2019-03-24T02:18:57.329Z,15.53
2019-03-24T02:21:28.451Z,15.48
2019-03-24T02:24:00.204Z,16.17
2019-03-24T02:26:31.374Z,17.10
2019-03-24T02:29:02.558Z,18.75
2019-03-24T02:31:34.768Z,16.57
2019-03-24T02:34:05.779Z,16.82
2019-03-24T02:36:37.364Z,16.85
2019-03-24T02:39:08.652Z,17.80
2019-03-24T02:41:39.779Z,17.23
2019-03-24T02:44:11.040Z,16.77
2019-03-24T02:46:42.401Z,17.48
2019-03-24T02:49:14.494Z,17.12
2019-03-24T02:51:45.658Z,16.90
2019-03-24T02:54:16.942Z,15.63
2019-03-24T02:56:47.929Z,15.28
2019-03-24T02:59:20.316Z,14.20
2019-03-24T03:01:51.593Z,12.47
2019-03-24T03:04:22.680Z,15.05
2019-03-24T03:06:53.782Z,16.30
2019-03-24T03:09:26.468Z,13.62
2019-03-24T03:11:57.494Z,14.47
2019-03-24T03:14:28.583Z,14.55
2019-03-24T03:16:59.768Z,14.53
2019-03-24T03:19:31.002Z,14.87
2019-03-24T03:22:02.181Z,14.58
2019-03-24T03:24:33.441Z,17.02
2019-03-24T03:27:04.666Z,14.40
2019-03-24T03:29:37.693Z,16.70
2019-03-24T03:32:08.978Z,15.13
2019-03-24T03:34:40.077Z,15.03
2019-03-24T03:37:11.193Z,14.03
2019-03-24T03:39:42.388Z,13.88
2019-03-24T03:42:13.503Z,12.40
2019-03-24T03:44:44.722Z,15.58
2019-03-24T03:47:15.794Z,14.93
2019-03-24T03:49:46.867Z,14.78
2019-03-24T03:52:17.969Z,15.18
2019-03-24T03:54:49.110Z,13.50
2019-03-24T03:57:20.165Z,12.50
2019-03-24T03:59:51.433Z,15.03
2019-03-24T04:02:22.678Z,15.15
2019-03-24T04:04:53.833Z,14.85
2019-03-24T04:07:24.970Z,13.08
2019-03-24T04:09:56.166Z,14.43
2019-03-24T04:12:27.217Z,14.83
2019-03-24T04:14:58.306Z,13.55
2019-03-24T04:17:29.469Z,13.10
2019-03-24T04:20:00.710Z,12.75
2019-03-24T04:22:31.828Z,12.85
2019-03-24T04:25:03.055Z,14.83
2019-03-24T04:27:34.186Z,13.62
2019-03-24T04:30:06.798Z,14.70
2019-03-24T04:32:38.013Z,13.88
2019-03-24T04:35:09.117Z,13.48
2019-03-24T04:37:40.326Z,14.58
2019-03-24T04:40:12.939Z,13.75
2019-03-24T04:42:44.183Z,13.58
2019-03-24T04:45:15.315Z,13.88
2019-03-24T04:47:46.437Z,15.15
2019-03-24T04:50:17.613Z,13.80
2019-03-24T04:52:48.689Z,13.65
2019-03-24T04:55:19.980Z,12.93
2019-03-24T04:57:51.143Z,13.72
2019-03-24T05:00:25.630Z,21.93
2019-03-24T05:02:56.867Z,13.95
2019-03-24T05:05:28.092Z,12.30
2019-03-24T05:07:59.206Z,16.30
2019-03-24T05:10:30.313Z,13.58
2019-03-24T05:13:01.453Z,12.93
2019-03-24T05:15:32.658Z,13.50
2019-03-24T05:18:06.693Z,12.33
2019-03-24T05:20:37.948Z,16.35
2019-03-24T05:23:08.947Z,15.40
2019-03-24T05:25:40.024Z,13.68
2019-03-24T05:28:11.088Z,12.33
2019-03-24T05:30:42.237Z,12.73
2019-03-24T05:33:13.364Z,13.75
2019-03-24T05:35:44.438Z,13.08
2019-03-24T05:38:15.551Z,13.28
2019-03-24T05:40:46.622Z,11.08
2019-03-24T05:43:17.939Z,11.33
2019-03-24T05:45:49.015Z,11.85
2019-03-24T05:48:20.136Z,14.78
2019-03-24T05:50:51.239Z,11.25
2019-03-24T05:53:22.294Z,13.10
2019-03-24T05:55:53.397Z,12.18
2019-03-24T05:58:25.527Z,12.05
2019-03-24T06:00:56.884Z,14.03
2019-03-24T06:03:27.958Z,13.30
2019-03-24T06:05:59.064Z,12.58
2019-03-24T06:08:30.184Z,13.38
2019-03-24T06:11:01.503Z,13.25
2019-03-24T06:13:32.611Z,13.58
2019-03-24T06:16:05.288Z,14.03
2019-03-24T06:18:36.431Z,12.07
2019-03-24T06:21:07.554Z,12.90
2019-03-24T06:23:40.362Z,13.83
2019-03-24T06:26:11.477Z,13.53
2019-03-24T06:28:44.883Z,12.88
2019-03-24T06:31:17.665Z,10.88
2019-03-24T06:33:48.854Z,13.18
2019-03-24T06:36:19.895Z,12.85
2019-03-24T06:38:51.039Z,14.18
2019-03-24T06:41:23.048Z,12.13
2019-03-24T06:43:54.350Z,15.00
2019-03-24T06:46:25.513Z,12.73
2019-03-24T06:48:56.679Z,11.95
2019-03-24T06:51:27.802Z,12.68
2019-03-24T06:53:58.902Z,12.45
2019-03-24T06:56:30.001Z,12.15
2019-03-24T06:59:01.904Z,10.60
2019-03-24T07:01:33.244Z,10.28
2019-03-24T07:04:04.403Z,12.98
2019-03-24T07:06:37.114Z,12.13
2019-03-24T07:09:08.247Z,12.37
2019-03-24T07:11:39.320Z,10.50
2019-03-24T07:14:10.433Z,9.65
2019-03-24T07:16:41.465Z,9.43
2019-03-24T07:19:12.624Z,8.65
2019-03-24T07:21:43.558Z,8.28
2019-03-24T07:24:15.697Z,10.50
2019-03-24T07:26:46.788Z,10.98
2019-03-24T07:29:17.908Z,12.60
2019-03-24T07:31:50.762Z,8.53
2019-03-24T07:34:21.900Z,8.70
2019-03-24T07:36:52.875Z,8.75
2019-03-24T07:39:23.849Z,7.67
2019-03-24T07:41:54.903Z,7.15
2019-03-24T07:44:25.955Z,7.20
2019-03-24T07:46:58.005Z,8.98
2019-03-24T07:49:29.146Z,7.15
2019-03-24T07:52:00.430Z,5.50
2019-03-24T07:54:31.408Z,7.37
2019-03-24T07:57:02.542Z,6.70
2019-03-24T07:59:34.475Z,7.62
2019-03-24T08:02:05.409Z,7.08
2019-03-24T08:04:36.612Z,7.47
2019-03-24T08:07:07.695Z,7.55
2019-03-24T08:09:38.861Z,7.45
2019-03-24T08:12:10.429Z,10.28
2019-03-24T08:14:45.615Z,8.58
2019-03-24T08:17:16.658Z,7.12
2019-03-24T08:19:48.128Z,5.78
2019-03-24T08:22:20.348Z,7.35
2019-03-24T08:24:52.236Z,5.90
2019-03-24T08:27:29.862Z,6.45
2019-03-24T08:30:01.005Z,7.85
2019-03-24T08:32:32.662Z,5.80
2019-03-24T08:35:05.146Z,6.58
2019-03-24T08:37:36.574Z,6.42
2019-03-24T08:40:07.696Z,7.37
2019-03-24T08:42:39.721Z,6.12
2019-03-24T08:45:13.942Z,9.53
2019-03-24T08:47:44.958Z,6.87
2019-03-24T08:50:15.956Z,6.55
2019-03-24T08:52:47.141Z,5.80
2019-03-24T08:55:18.104Z,13.20
2019-03-24T08:57:49.462Z,7.50
2019-03-24T09:00:30.169Z,9.55
2019-03-24T09:02:53.519Z,8.83
2019-03-24T09:05:24.466Z,7.53
2019-03-24T09:07:55.548Z,5.08
2019-03-24T09:10:26.622Z,5.72
2019-03-24T09:12:57.546Z,6.45
2019-03-24T09:15:28.653Z,9.73
2019-03-24T09:17:59.706Z,7.67
2019-03-24T09:20:40.971Z,7.33
2019-03-24T09:23:04.259Z,32.17
2019-03-24T09:25:36.099Z,18.50
2019-03-24T09:28:09.320Z,6.53
2019-03-24T09:30:40.885Z,6.70
2019-03-24T09:33:11.885Z,7.22
2019-03-24T09:35:42.988Z,6.20
2019-03-24T09:38:14.029Z,8.05
2019-03-24T09:40:44.906Z,6.62
2019-03-24T09:43:16.020Z,8.08
2019-03-24T09:45:47.081Z,8.35
2019-03-24T09:48:18.481Z,6.37
2019-03-24T09:50:49.348Z,7.67
2019-03-24T09:53:21.479Z,6.53
2019-03-24T09:55:54.365Z,6.87
2019-03-24T09:58:25.433Z,8.23
2019-03-24T10:00:56.513Z,22.67
2019-03-24T10:03:27.905Z,8.10
2019-03-24T10:05:58.814Z,7.60
2019-03-24T10:08:29.909Z,6.78
2019-03-24T10:11:01.075Z,6.03
2019-03-24T10:13:32.287Z,7.08
2019-03-24T10:16:03.448Z,5.62
2019-03-24T10:18:34.379Z,6.20
2019-03-24T10:21:05.399Z,9.10
2019-03-24T10:23:36.519Z,6.25
2019-03-24T10:26:07.571Z,8.50
2019-03-24T10:28:38.553Z,6.10
2019-03-24T10:31:09.867Z,10.48
2019-03-24T10:33:40.970Z,6.62
2019-03-24T10:36:12.385Z,8.25
2019-03-24T10:38:43.628Z,6.47
2019-03-24T10:41:14.601Z,7.10
2019-03-24T10:43:45.616Z,8.08
2019-03-24T10:46:16.705Z,7.92
2019-03-24T10:48:47.874Z,6.62
2019-03-24T10:51:18.911Z,10.45
2019-03-24T10:53:50.083Z,5.90
2019-03-24T10:56:21.093Z,5.83
2019-03-24T10:58:51.998Z,7.67
2019-03-24T11:01:23.126Z,15.72
2019-03-24T11:03:54.268Z,9.33
2019-03-24T11:06:25.389Z,9.08
2019-03-24T11:08:56.457Z,12.73
2019-03-24T11:11:27.457Z,11.93
2019-03-24T11:13:58.989Z,8.90
2019-03-24T11:16:30.195Z,11.73
2019-03-24T11:19:01.570Z,15.75
2019-03-24T11:21:32.627Z,11.80
2019-03-24T11:24:04.040Z,17.12
2019-03-24T11:26:35.307Z,14.47
2019-03-24T11:29:07.569Z,11.18
2019-03-24T11:31:38.762Z,9.20
2019-03-24T11:34:09.868Z,8.45
2019-03-24T11:36:41.083Z,87.90
2019-03-24T11:39:12.300Z,8.25
2019-03-24T11:41:43.346Z,10.15
2019-03-24T11:44:14.687Z,11.05
2019-03-24T11:46:45.814Z,16.67
2019-03-24T11:49:16.152Z,15.45
2019-03-24T11:51:47.285Z,13.72
2019-03-24T11:54:18.615Z,8.88
2019-03-24T11:56:49.732Z,12.07
2019-03-24T11:59:20.834Z,5.45
2019-03-24T12:01:51.795Z,7.50
2019-03-24T12:04:23.090Z,7.05
2019-03-24T12:06:54.178Z,6.22
2019-03-24T12:09:25.255Z,9.90
2019-03-24T12:11:56.375Z,10.85
2019-03-24T12:14:27.595Z,8.70
2019-03-24T12:16:58.643Z,6.87
2019-03-24T12:19:30.622Z,5.83
2019-03-24T12:22:01.519Z,7.65
2019-03-24T12:24:32.633Z,7.35
2019-03-24T12:27:03.687Z,8.15
2019-03-24T12:29:34.735Z,7.90
2019-03-24T12:32:05.658Z,8.55
2019-03-24T12:34:36.757Z,6.50
2019-03-24T12:37:07.966Z,6.17
2019-03-24T12:39:39.133Z,6.72
2019-03-24T12:42:10.079Z,6.60
2019-03-24T12:44:41.326Z,10.43
2019-03-24T12:47:13.051Z,9.00
2019-03-24T12:49:44.049Z,10.28
2019-03-24T12:52:15.131Z,6.87
2019-03-24T12:54:46.136Z,9.63
2019-03-24T12:57:17.323Z,7.80
2019-03-24T12:59:48.357Z,7.42
2019-03-24T13:02:19.773Z,9.90
2019-03-24T13:04:51.053Z,9.18
2019-03-24T13:07:22.276Z,9.30
2019-03-24T13:09:54.050Z,11.38
2019-03-24T13:12:25.372Z,8.00
2019-03-24T13:14:56.311Z,7.75
2019-03-24T13:17:27.367Z,8.35
2019-03-24T13:19:58.462Z,8.93
2019-03-24T13:22:29.493Z,9.08
2019-03-24T13:25:01.882Z,7.83
2019-03-24T13:27:33.069Z,8.48
2019-03-24T13:30:05.915Z,8.53
2019-03-24T13:32:37.049Z,12.18
2019-03-24T13:37:57.002Z,8.00
2019-03-24T13:40:28.865Z,11.75
2019-03-24T13:42:59.920Z,12.00
2019-03-24T13:45:31.131Z,15.65
2019-03-24T13:48:02.328Z,7.97
2019-03-24T13:50:33.391Z,9.78
2019-03-24T13:53:05.047Z,10.23
2019-03-24T13:55:39.217Z,9.93
2019-03-24T13:58:15.688Z,9.30
2019-03-24T14:00:47.126Z,8.28
2019-03-24T14:03:18.194Z,8.50
2019-03-24T14:05:49.297Z,9.83
2019-03-24T14:08:20.317Z,11.00
2019-03-24T14:10:51.328Z,9.85
2019-03-24T14:13:22.555Z,9.10
2019-03-24T14:15:55.503Z,9.73
2019-03-24T14:18:26.558Z,9.05
2019-03-24T14:20:57.743Z,8.90
2019-03-24T14:23:28.786Z,9.55
2019-03-24T14:25:59.754Z,13.78
2019-03-24T14:28:30.789Z,10.43
2019-03-24T14:31:01.821Z,9.70
2019-03-24T14:33:34.128Z,11.90
2019-03-24T14:36:05.380Z,11.22
2019-03-24T14:38:36.473Z,10.35
2019-03-24T14:41:08.869Z,10.23
2019-03-24T14:43:41.076Z,11.90
2019-03-24T14:46:12.245Z,20.40
2019-03-24T14:48:43.486Z,12.00
2019-03-24T14:51:14.704Z,12.65
2019-03-24T14:53:45.880Z,16.55
2019-03-24T14:56:16.963Z,15.38
2019-03-24T14:58:48.080Z,12.90
2019-03-24T15:01:19.089Z,16.23
2019-03-24T15:03:50.124Z,12.65
2019-03-24T15:06:22.337Z,13.70
2019-03-24T15:08:53.602Z,17.20
2019-03-24T15:11:25.892Z,17.75
2019-03-24T15:13:57.000Z,18.90
2019-03-24T15:16:28.162Z,24.65
2019-03-24T15:18:59.341Z,25.85
2019-03-24T15:21:30.535Z,20.02
2019-03-24T15:24:01.774Z,21.73
2019-03-24T15:26:33.017Z,21.70
2019-03-24T15:29:05.829Z,22.60
2019-03-24T15:31:37.454Z,24.92
2019-03-24T15:34:08.703Z,22.50
2019-03-24T15:36:39.942Z,21.50
2019-03-24T15:39:11.159Z,21.85
2019-03-24T15:41:43.525Z,21.80
2019-03-24T15:44:14.798Z,21.07
2019-03-24T15:46:46.902Z,22.82
2019-03-24T15:49:18.145Z,23.20
2019-03-24T15:51:49.220Z,28.57
2019-03-24T15:54:22.650Z,26.82
2019-03-24T15:56:53.794Z,28.55
2019-03-24T15:59:25.068Z,30.80
2019-03-24T16:01:56.219Z,27.58
2019-03-24T16:04:27.525Z,30.82
2019-03-24T16:06:59.145Z,32.05
2019-03-24T16:09:30.267Z,33.98
2019-03-24T16:12:01.459Z,33.13
2019-03-24T16:14:32.753Z,35.45
2019-03-24T16:17:03.929Z,35.83
2019-03-24T16:19:39.108Z,34.78
2019-03-24T16:22:11.993Z,40.30
2019-03-24T16:24:43.106Z,39.18
2019-03-24T16:27:17.210Z,38.08
2019-03-24T16:29:48.522Z,42.65
2019-03-24T16:32:23.244Z,37.75
2019-03-24T16:34:55.733Z,43.38
2019-03-24T16:37:27.824Z,42.27
2019-03-24T16:39:59.524Z,41.20
2019-03-24T16:42:32.947Z,43.08
2019-03-24T16:45:05.213Z,41.73
2019-03-24T16:47:36.409Z,44.70
2019-03-24T16:50:07.968Z,52.80
2019-03-24T16:52:39.143Z,52.80
2019-03-24T16:55:12.229Z,66.42
2019-03-24T16:57:44.280Z,56.80
2019-03-24T17:00:15.419Z,64.55
2019-03-24T17:02:46.773Z,63.55
2019-03-24T17:05:18.011Z,73.22
2019-03-24T17:07:50.208Z,62.67
2019-03-24T17:10:21.645Z,64.45
2019-03-24T17:12:52.704Z,63.48
2019-03-24T17:15:23.784Z,60.75
2019-03-24T17:17:55.035Z,62.17
2019-03-24T17:20:26.336Z,62.85
2019-03-24T17:22:57.518Z,57.23
2019-03-24T17:25:28.828Z,67.15
2019-03-24T17:28:00.604Z,64.72
2019-03-24T17:30:32.180Z,61.73
2019-03-24T17:33:03.741Z,58.15
2019-03-24T17:35:34.854Z,63.52
2019-03-24T17:38:06.116Z,57.98
2019-03-24T17:40:39.019Z,58.92
2019-03-24T17:43:12.135Z,54.33
2019-03-24T17:45:43.379Z,52.55
2019-03-24T17:48:14.724Z,48.13
2019-03-24T17:50:46.194Z,48.23
2019-03-24T17:53:17.453Z,44.58
2019-03-24T17:55:49.238Z,46.35
2019-03-24T17:58:20.721Z,47.27
2019-03-24T18:00:54.372Z,40.35
2019-03-24T18:03:28.383Z,41.18
2019-03-24T18:06:00.983Z,43.78
2019-03-24T18:08:32.315Z,42.65
2019-03-24T18:11:03.618Z,39.53
2019-03-24T18:13:34.879Z,37.33
2019-03-24T18:16:06.121Z,40.90
2019-03-24T18:18:37.241Z,45.78
2019-03-24T18:21:08.473Z,40.38
2019-03-24T18:23:39.659Z,41.58
2019-03-24T18:26:10.808Z,37.98
2019-03-24T18:28:42.049Z,39.42
2019-03-24T18:31:13.374Z,40.75
2019-03-24T18:33:44.884Z,30.80
2019-03-24T18:36:16.018Z,28.95
2019-03-24T18:38:50.744Z,30.72
2019-03-24T18:41:22.041Z,29.07
2019-03-24T18:43:53.389Z,30.75
2019-03-24T18:46:24.465Z,28.40
2019-03-24T18:48:55.684Z,30.23
2019-03-24T18:51:27.008Z,29.37
2019-03-24T18:53:58.233Z,30.32
2019-03-24T18:56:29.704Z,34.00
2019-03-24T18:59:00.929Z,29.23
2019-03-24T19:01:32.178Z,28.87
2019-03-24T19:04:04.512Z,27.42
2019-03-24T19:06:36.270Z,30.72
2019-03-24T19:09:08.926Z,25.77
2019-03-24T19:11:40.251Z,28.65
2019-03-24T19:14:11.467Z,32.15
2019-03-24T19:16:43.561Z,33.58
2019-03-24T19:19:14.821Z,25.77
2019-03-24T19:21:47.763Z,24.23
2019-03-24T19:24:19.027Z,25.70
2019-03-24T19:26:50.274Z,29.45
2019-03-24T19:29:21.380Z,24.95
2019-03-24T19:31:54.419Z,22.15
2019-03-24T19:34:25.657Z,21.15
2019-03-24T19:36:57.670Z,20.32
2019-03-24T19:39:29.147Z,17.67
2019-03-24T19:42:00.386Z,20.08
2019-03-24T19:44:31.703Z,20.20
2019-03-24T19:47:03.914Z,17.32
2019-03-24T19:49:35.081Z,19.52
2019-03-24T19:52:07.416Z,20.72
2019-03-24T19:54:40.340Z,59.27
2019-03-24T19:57:13.202Z,20.88
2019-03-24T19:59:44.769Z,21.57
2019-03-24T20:02:16.068Z,22.17
2019-03-24T20:04:47.310Z,20.90
2019-03-24T20:07:18.699Z,20.75
2019-03-24T20:09:50.117Z,18.62
2019-03-24T20:12:23.770Z,17.57
2019-03-24T20:14:56.355Z,18.37
2019-03-24T20:17:27.593Z,18.50
2019-03-24T20:19:58.829Z,21.20
2019-03-24T20:22:30.268Z,17.10
2019-03-24T20:25:01.500Z,19.80
2019-03-24T20:27:33.055Z,17.75
2019-03-24T20:30:07.016Z,16.62
2019-03-24T20:32:39.358Z,18.85
2019-03-24T20:35:10.608Z,18.98
2019-03-24T20:37:41.814Z,15.85
2019-03-24T20:40:13.922Z,18.12
2019-03-24T20:42:45.513Z,20.17
2019-03-24T20:45:20.169Z,18.57
2019-03-24T20:47:51.901Z,18.40
2019-03-24T20:50:24.305Z,20.40
2019-03-24T20:53:04.038Z,20.70
2019-03-24T20:55:28.905Z,26.52
2019-03-24T20:58:01.710Z,20.90
2019-03-24T21:00:36.323Z,25.55
2019-03-24T21:03:07.982Z,26.00
2019-03-24T21:05:39.925Z,26.10
2019-03-24T21:08:11.256Z,29.35
2019-03-24T21:10:44.812Z,32.55
2019-03-24T21:13:16.176Z,32.10
2019-03-24T21:15:49.015Z,26.42
2019-03-24T21:18:20.327Z,28.07
2019-03-24T21:20:53.394Z,27.70
2019-03-24T21:23:30.046Z,30.27
2019-03-24T21:26:06.827Z,28.47
2019-03-24T21:28:39.251Z,31.73
2019-03-24T21:31:10.574Z,33.28
2019-03-24T21:33:42.542Z,31.12
2019-03-24T21:36:16.428Z,41.60
2019-03-24T21:38:47.617Z,49.40
2019-03-24T21:41:18.883Z,59.93
2019-03-24T21:43:50.103Z,57.33
2019-03-24T21:46:21.531Z,54.00
2019-03-24T21:48:52.853Z,57.70
2019-03-24T21:51:24.002Z,57.43
2019-03-24T21:53:55.197Z,52.10
2019-03-24T21:56:26.400Z,58.70
2019-03-24T21:58:57.664Z,63.45
2019-03-24T22:01:32.792Z,58.28
2019-03-24T22:04:05.613Z,63.85
2019-03-24T22:06:37.289Z,63.83
2019-03-24T22:09:08.494Z,59.58
2019-03-24T22:11:41.914Z,62.95
2019-03-24T22:14:15.481Z,70.15
2019-03-24T22:16:47.483Z,60.73
2019-03-24T22:19:18.909Z,59.15
2019-03-24T22:21:53.222Z,69.10
2019-03-24T22:24:24.645Z,67.32
2019-03-24T22:26:55.679Z,72.85
2019-03-24T22:29:27.199Z,74.97
2019-03-24T22:31:58.481Z,78.72
2019-03-24T22:34:34.128Z,74.90
2019-03-24T22:37:15.424Z,103.75
2019-03-24T22:39:38.275Z,69.42
2019-03-24T22:42:10.432Z,66.45
2019-03-24T22:44:44.428Z,66.20
2019-03-24T22:47:16.828Z,57.55
2019-03-24T22:49:49.667Z,55.67
2019-03-24T22:52:23.878Z,58.10
2019-03-24T22:54:56.048Z,60.00
2019-03-24T22:57:27.438Z,60.00
2019-03-24T22:59:58.747Z,59.30
2019-03-24T23:02:30.947Z,63.10
2019-03-24T23:05:02.544Z,58.98
2019-03-24T23:07:34.847Z,65.28
2019-03-24T23:10:06.152Z,60.20
2019-03-24T23:12:37.474Z,62.83
2019-03-24T23:15:08.583Z,58.25
2019-03-24T23:17:39.892Z,56.95
2019-03-24T23:20:11.205Z,59.00
2019-03-24T23:22:43.486Z,57.53
2019-03-24T23:25:14.708Z,60.70
2019-03-24T23:27:45.972Z,58.75
2019-03-24T23:30:17.112Z,58.23
2019-03-24T23:32:48.729Z,58.73
2019-03-24T23:35:21.075Z,52.60
2019-03-24T23:37:52.740Z,55.17
2019-03-24T23:40:26.980Z,54.95
2019-03-24T23:42:58.113Z,54.30
2019-03-24T23:45:29.412Z,57.33
2019-03-24T23:48:00.514Z,52.23
2019-03-24T23:50:31.698Z,54.00
2019-03-24T23:53:03.807Z,55.23
2019-03-24T23:55:34.848Z,62.43
2019-03-24T23:58:06.752Z,98.25
